sensor_id;sensor_type;location;lat;lon;timestamp;pressure;altitude;pressure_sealevel;temperature;humidity
16806;BME280;8520;50.102;20.010;2023-02-28T00:01:30;99457.81;;;3.78;59.69
16806;BME280;8520;50.102;20.010;2023-02-28T00:03:59;99459.38;;;3.76;59.66
16806;BME280;8520;50.102;20.010;2023-02-28T00:06:29;99464.41;;;3.81;59.58
16806;BME280;8520;50.102;20.010;2023-02-28T00:08:57;99467.16;;;3.74;59.84
16806;BME280;8520;50.102;20.010;2023-02-28T00:11:25;99469.81;;;3.88;59.48
16806;BME280;8520;50.102;20.010;2023-02-28T00:13:53;99474.06;;;3.92;59.54
16806;BME280;8520;50.102;20.010;2023-02-28T00:16:22;99471.38;;;3.89;59.59
16806;BME280;8520;50.102;20.010;2023-02-28T00:18:50;99468.72;;;3.78;59.63
16806;BME280;8520;50.102;20.010;2023-02-28T00:21:19;99473.34;;;3.85;59.63
16806;BME280;8520;50.102;20.010;2023-02-28T00:23:49;99466.00;;;3.78;59.32
16806;BME280;8520;50.102;20.010;2023-02-28T00:26:17;99464.44;;;3.77;59.63
16806;BME280;8520;50.102;20.010;2023-02-28T00:28:48;99469.56;;;3.64;59.79
16806;BME280;8520;50.102;20.010;2023-02-28T00:31:16;99471.06;;;3.72;59.62
16806;BME280;8520;50.102;20.010;2023-02-28T00:33:47;99470.25;;;3.79;59.55
16806;BME280;8520;50.102;20.010;2023-02-28T00:36:15;99466.34;;;3.80;59.43
16806;BME280;8520;50.102;20.010;2023-02-28T00:38:43;99474.56;;;3.73;59.54
16806;BME280;8520;50.102;20.010;2023-02-28T00:41:13;99467.97;;;3.70;59.57
16806;BME280;8520;50.102;20.010;2023-02-28T00:43:41;99466.78;;;3.71;59.69
16806;BME280;8520;50.102;20.010;2023-02-28T00:46:10;99469.91;;;3.70;59.85
16806;BME280;8520;50.102;20.010;2023-02-28T00:48:38;99461.38;;;3.64;59.74
16806;BME280;8520;50.102;20.010;2023-02-28T00:51:06;99464.91;;;3.61;59.76
16806;BME280;8520;50.102;20.010;2023-02-28T00:53:34;99466.09;;;3.53;59.85
16806;BME280;8520;50.102;20.010;2023-02-28T00:56:03;99459.09;;;3.56;59.50
16806;BME280;8520;50.102;20.010;2023-02-28T00:58:32;99464.53;;;3.56;59.54
16806;BME280;8520;50.102;20.010;2023-02-28T01:01:00;99463.00;;;3.51;59.28
16806;BME280;8520;50.102;20.010;2023-02-28T01:03:29;99462.63;;;3.46;59.15
16806;BME280;8520;50.102;20.010;2023-02-28T01:05:57;99464.25;;;3.39;59.05
16806;BME280;8520;50.102;20.010;2023-02-28T01:08:26;99470.09;;;3.31;59.11
16806;BME280;8520;50.102;20.010;2023-02-28T01:10:54;99477.84;;;3.36;59.10
16806;BME280;8520;50.102;20.010;2023-02-28T01:13:23;99465.41;;;3.35;59.03
16806;BME280;8520;50.102;20.010;2023-02-28T01:15:55;99470.09;;;3.34;59.15
16806;BME280;8520;50.102;20.010;2023-02-28T01:18:24;99466.22;;;3.32;59.07
16806;BME280;8520;50.102;20.010;2023-02-28T01:20:52;99470.50;;;3.29;59.26
16806;BME280;8520;50.102;20.010;2023-02-28T01:23:22;99463.88;;;3.27;59.37
16806;BME280;8520;50.102;20.010;2023-02-28T01:25:51;99466.25;;;3.21;59.51
16806;BME280;8520;50.102;20.010;2023-02-28T01:28:19;99467.44;;;3.20;59.49
16806;BME280;8520;50.102;20.010;2023-02-28T01:30:49;99472.88;;;3.17;59.65
16806;BME280;8520;50.102;20.010;2023-02-28T01:33:19;99474.84;;;3.12;59.92
16806;BME280;8520;50.102;20.010;2023-02-28T01:35:47;99473.28;;;3.11;60.17
16806;BME280;8520;50.102;20.010;2023-02-28T01:38:15;99469.78;;;3.07;60.74
16806;BME280;8520;50.102;20.010;2023-02-28T01:40:49;99474.06;;;3.08;60.88
16806;BME280;8520;50.102;20.010;2023-02-28T01:43:21;99476.38;;;3.10;61.18
16806;BME280;8520;50.102;20.010;2023-02-28T01:45:52;99475.22;;;3.07;61.83
16806;BME280;8520;50.102;20.010;2023-02-28T01:48:25;99481.44;;;3.08;62.07
16806;BME280;8520;50.102;20.010;2023-02-28T01:50:57;99473.28;;;3.08;62.42
16806;BME280;8520;50.102;20.010;2023-02-28T01:53:30;99485.34;;;3.07;62.76
16806;BME280;8520;50.102;20.010;2023-02-28T01:56:00;99469.38;;;3.09;62.95
16806;BME280;8520;50.102;20.010;2023-02-28T01:58:31;99477.94;;;3.07;63.18
16806;BME280;8520;50.102;20.010;2023-02-28T02:01:00;99479.16;;;2.92;63.89
16806;BME280;8520;50.102;20.010;2023-02-28T02:03:31;99471.75;;;3.00;64.09
16806;BME280;8520;50.102;20.010;2023-02-28T02:05:59;99470.56;;;3.01;63.83
16806;BME280;8520;50.102;20.010;2023-02-28T02:08:28;99474.09;;;2.94;64.11
16806;BME280;8520;50.102;20.010;2023-02-28T02:10:59;99465.94;;;2.94;64.08
16806;BME280;8520;50.102;20.010;2023-02-28T02:13:42;99467.13;;;2.93;64.00
16806;BME280;8520;50.102;20.010;2023-02-28T02:16:27;99460.13;;;2.78;64.40
16806;BME280;8520;50.102;20.010;2023-02-28T02:19:09;99464.78;;;2.74;64.48
16806;BME280;8520;50.102;20.010;2023-02-28T02:25:11;99466.34;;;2.71;64.40
16806;BME280;8520;50.102;20.010;2023-02-28T02:28:04;99460.53;;;2.69;64.37
16806;BME280;8520;50.102;20.010;2023-02-28T02:30:58;99461.72;;;2.61;64.53
16806;BME280;8520;50.102;20.010;2023-02-28T02:37:00;99450.06;;;2.43;64.57
16806;BME280;8520;50.102;20.010;2023-02-28T02:39:38;99446.56;;;2.42;64.41
16806;BME280;8520;50.102;20.010;2023-02-28T02:42:13;99445.81;;;2.31;64.56
16806;BME280;8520;50.102;20.010;2023-02-28T02:44:47;99448.91;;;2.30;64.65
16806;BME280;8520;50.102;20.010;2023-02-28T02:47:19;99443.09;;;2.31;64.44
16806;BME280;8520;50.102;20.010;2023-02-28T02:49:51;99446.97;;;2.16;64.67
16806;BME280;8520;50.102;20.010;2023-02-28T02:52:24;99444.63;;;2.25;64.60
16806;BME280;8520;50.102;20.010;2023-02-28T02:54:56;99449.31;;;2.21;64.71
16806;BME280;8520;50.102;20.010;2023-02-28T02:57:30;99449.66;;;2.19;64.67
16806;BME280;8520;50.102;20.010;2023-02-28T03:00:02;99444.63;;;2.18;64.78
16806;BME280;8520;50.102;20.010;2023-02-28T03:02:32;99448.50;;;2.17;64.73
16806;BME280;8520;50.102;20.010;2023-02-28T03:05:04;99448.13;;;2.08;64.88
16806;BME280;8520;50.102;20.010;2023-02-28T03:07:34;99436.47;;;2.04;65.08
16806;BME280;8520;50.102;20.010;2023-02-28T03:13:00;99444.22;;;1.98;65.45
16806;BME280;8520;50.102;20.010;2023-02-28T03:15:40;99448.47;;;1.88;65.87
16806;BME280;8520;50.102;20.010;2023-02-28T03:18:17;99447.31;;;1.82;65.86
16806;BME280;8520;50.102;20.010;2023-02-28T03:20:55;99451.22;;;1.85;65.93
16806;BME280;8520;50.102;20.010;2023-02-28T03:23:34;99449.63;;;1.80;66.25
16806;BME280;8520;50.102;20.010;2023-02-28T03:26:12;99450.03;;;1.79;66.36
16806;BME280;8520;50.102;20.010;2023-02-28T03:28:51;99453.13;;;1.81;66.45
16806;BME280;8520;50.102;20.010;2023-02-28T03:31:25;99454.28;;;1.76;66.49
16806;BME280;8520;50.102;20.010;2023-02-28T03:33:59;99453.91;;;1.74;66.92
16806;BME280;8520;50.102;20.010;2023-02-28T03:36:33;99453.91;;;1.74;66.98
16806;BME280;8520;50.102;20.010;2023-02-28T03:39:13;99461.25;;;1.66;67.21
16806;BME280;8520;50.102;20.010;2023-02-28T03:41:43;99457.41;;;1.75;67.25
16806;BME280;8520;50.102;20.010;2023-02-28T03:44:18;99465.16;;;1.76;67.11
16806;BME280;8520;50.102;20.010;2023-02-28T03:46:57;99469.78;;;1.72;67.44
16806;BME280;8520;50.102;20.010;2023-02-28T03:49:31;99472.13;;;1.70;67.70
16806;BME280;8520;50.102;20.010;2023-02-28T03:52:02;99472.53;;;1.65;68.10
16806;BME280;8520;50.102;20.010;2023-02-28T03:54:35;99467.84;;;1.62;68.29
16806;BME280;8520;50.102;20.010;2023-02-28T03:57:11;99469.78;;;1.61;68.42
16806;BME280;8520;50.102;20.010;2023-02-28T03:59:47;99470.16;;;1.63;68.41
16806;BME280;8520;50.102;20.010;2023-02-28T04:02:16;99467.03;;;1.51;69.07
16806;BME280;8520;50.102;20.010;2023-02-28T04:04:45;99475.94;;;1.55;69.12
16806;BME280;8520;50.102;20.010;2023-02-28T04:07:15;99470.91;;;1.50;69.19
16806;BME280;8520;50.102;20.010;2023-02-28T04:09:45;99475.56;;;1.53;68.91
16806;BME280;8520;50.102;20.010;2023-02-28T04:12:13;99470.84;;;1.35;69.33
16806;BME280;8520;50.102;20.010;2023-02-28T04:14:41;99475.53;;;1.42;69.13
16806;BME280;8520;50.102;20.010;2023-02-28T04:17:09;99473.59;;;1.42;68.89
16806;BME280;8520;50.102;20.010;2023-02-28T04:19:37;99474.38;;;1.39;68.90
16806;BME280;8520;50.102;20.010;2023-02-28T04:22:05;99477.09;;;1.39;68.92
16806;BME280;8520;50.102;20.010;2023-02-28T04:24:34;99475.91;;;1.40;68.89
16806;BME280;8520;50.102;20.010;2023-02-28T04:27:03;99479.41;;;1.37;68.92
16806;BME280;8520;50.102;20.010;2023-02-28T04:29:32;99484.84;;;1.37;68.78
16806;BME280;8520;50.102;20.010;2023-02-28T04:32:01;99482.88;;;1.34;68.74
16806;BME280;8520;50.102;20.010;2023-02-28T04:34:31;99487.47;;;1.23;69.25
16806;BME280;8520;50.102;20.010;2023-02-28T04:37:00;99487.06;;;1.18;69.47
16806;BME280;8520;50.102;20.010;2023-02-28T04:39:39;99487.09;;;1.25;69.46
16806;BME280;8520;50.102;20.010;2023-02-28T04:42:09;99484.00;;;1.23;69.30
16806;BME280;8520;50.102;20.010;2023-02-28T04:44:38;99480.06;;;1.17;69.29
16806;BME280;8520;50.102;20.010;2023-02-28T04:47:06;99483.97;;;1.19;69.31
16806;BME280;8520;50.102;20.010;2023-02-28T04:49:34;99497.91;;;1.18;69.39
16806;BME280;8520;50.102;20.010;2023-02-28T04:52:02;99494.81;;;1.16;69.38
16806;BME280;8520;50.102;20.010;2023-02-28T04:54:30;99495.56;;;1.12;69.46
16806;BME280;8520;50.102;20.010;2023-02-28T04:56:58;99493.22;;;1.07;69.61
16806;BME280;8520;50.102;20.010;2023-02-28T04:59:29;99497.03;;;0.96;69.87
16806;BME280;8520;50.102;20.010;2023-02-28T05:01:57;99497.75;;;0.89;70.31
16806;BME280;8520;50.102;20.010;2023-02-28T05:04:25;99499.31;;;0.90;70.65
16806;BME280;8520;50.102;20.010;2023-02-28T05:06:53;99489.22;;;0.91;70.56
16806;BME280;8520;50.102;20.010;2023-02-28T05:09:22;99497.34;;;0.83;70.79
16806;BME280;8520;50.102;20.010;2023-02-28T05:11:50;99506.22;;;0.77;71.55
16806;BME280;8520;50.102;20.010;2023-02-28T05:14:18;99507.72;;;0.71;71.51
16806;BME280;8520;50.102;20.010;2023-02-28T05:16:47;99512.63;;;0.54;72.40
16806;BME280;8520;50.102;20.010;2023-02-28T05:19:15;99506.41;;;0.50;72.36
16806;BME280;8520;50.102;20.010;2023-02-28T05:21:49;99514.00;;;0.34;73.01
16806;BME280;8520;50.102;20.010;2023-02-28T05:24:19;99509.41;;;0.38;72.93
16806;BME280;8520;50.102;20.010;2023-02-28T05:26:50;99515.22;;;0.40;72.75
16806;BME280;8520;50.102;20.010;2023-02-28T05:29:19;99514.81;;;0.38;72.81
16806;BME280;8520;50.102;20.010;2023-02-28T05:31:49;99515.25;;;0.44;72.73
16806;BME280;8520;50.102;20.010;2023-02-28T05:34:17;99517.91;;;0.37;72.84
16806;BME280;8520;50.102;20.010;2023-02-28T05:36:45;99527.63;;;0.41;72.44
16806;BME280;8520;50.102;20.010;2023-02-28T05:39:14;99521.06;;;0.42;72.21
16806;BME280;8520;50.102;20.010;2023-02-28T05:41:43;99525.16;;;0.25;72.27
16806;BME280;8520;50.102;20.010;2023-02-28T05:44:11;99517.53;;;0.38;72.24
16806;BME280;8520;50.102;20.010;2023-02-28T05:46:39;99524.53;;;0.43;71.90
16806;BME280;8520;50.102;20.010;2023-02-28T05:49:08;99527.63;;;0.41;71.86
16806;BME280;8520;50.102;20.010;2023-02-28T05:51:37;99534.66;;;0.46;71.76
16806;BME280;8520;50.102;20.010;2023-02-28T05:54:07;99543.13;;;0.44;71.96
16806;BME280;8520;50.102;20.010;2023-02-28T05:56:35;99542.41;;;0.47;71.88
16806;BME280;8520;50.102;20.010;2023-02-28T05:59:05;99553.41;;;0.24;72.12
16806;BME280;8520;50.102;20.010;2023-02-28T06:01:35;99546.50;;;0.31;72.48
16806;BME280;8520;50.102;20.010;2023-02-28T06:04:06;99563.66;;;0.42;72.61
16806;BME280;8520;50.102;20.010;2023-02-28T06:06:47;99555.59;;;0.52;72.08
16806;BME280;8520;50.102;20.010;2023-02-28T06:09:15;99556.81;;;0.55;72.21
16806;BME280;8520;50.102;20.010;2023-02-28T06:11:43;99557.09;;;0.94;71.36
16806;BME280;8520;50.102;20.010;2023-02-28T06:14:14;99558.78;;;1.13;70.72
16806;BME280;8520;50.102;20.010;2023-02-28T06:16:43;99550.66;;;1.17;70.07
16806;BME280;8520;50.102;20.010;2023-02-28T06:19:12;99553.38;;;1.17;70.63
16806;BME280;8520;50.102;20.010;2023-02-28T06:21:42;99553.81;;;1.26;70.07
16806;BME280;8520;50.102;20.010;2023-02-28T06:24:11;99564.59;;;1.11;70.39
16806;BME280;8520;50.102;20.010;2023-02-28T06:26:39;99572.44;;;1.27;70.20
16806;BME280;8520;50.102;20.010;2023-02-28T06:29:07;99565.16;;;1.42;70.07
16806;BME280;8520;50.102;20.010;2023-02-28T06:31:36;99569.41;;;1.43;69.97
16806;BME280;8520;50.102;20.010;2023-02-28T06:34:05;99567.09;;;1.41;70.14
16806;BME280;8520;50.102;20.010;2023-02-28T06:36:33;99573.31;;;1.46;70.56
16806;BME280;8520;50.102;20.010;2023-02-28T06:39:01;99571.44;;;1.60;70.20
16806;BME280;8520;50.102;20.010;2023-02-28T06:41:30;99577.66;;;1.61;70.28
16806;BME280;8520;50.102;20.010;2023-02-28T06:44:21;99574.13;;;1.50;70.23
16806;BME280;8520;50.102;20.010;2023-02-28T06:46:49;99579.16;;;1.55;70.33
16806;BME280;8520;50.102;20.010;2023-02-28T06:49:18;99571.41;;;1.50;70.50
16806;BME280;8520;50.102;20.010;2023-02-28T06:51:46;99575.69;;;1.54;70.44
16806;BME280;8520;50.102;20.010;2023-02-28T06:54:14;99583.91;;;1.65;70.02
16806;BME280;8520;50.102;20.010;2023-02-28T06:56:43;99582.72;;;1.62;69.91
16806;BME280;8520;50.102;20.010;2023-02-28T06:59:11;99593.63;;;1.69;69.87
16806;BME280;8520;50.102;20.010;2023-02-28T07:01:40;99593.25;;;1.78;69.68
16806;BME280;8520;50.102;20.010;2023-02-28T07:04:08;99588.09;;;1.48;69.68
16806;BME280;8520;50.102;20.010;2023-02-28T07:06:36;99590.13;;;1.65;69.50
16806;BME280;8520;50.102;20.010;2023-02-28T07:09:04;99587.41;;;1.69;69.85
16806;BME280;8520;50.102;20.010;2023-02-28T07:11:36;99590.56;;;1.82;69.23
16806;BME280;8520;50.102;20.010;2023-02-28T07:14:05;99592.53;;;1.88;69.15
16806;BME280;8520;50.102;20.010;2023-02-28T07:16:33;99592.09;;;1.79;68.97
16806;BME280;8520;50.102;20.010;2023-02-28T07:19:01;99597.19;;;1.88;68.66
16806;BME280;8520;50.102;20.010;2023-02-28T07:21:29;99603.09;;;2.04;68.32
16806;BME280;8520;50.102;20.010;2023-02-28T07:23:58;99600.00;;;2.13;67.95
16806;BME280;8520;50.102;20.010;2023-02-28T07:26:26;99598.84;;;2.24;67.73
16806;BME280;8520;50.102;20.010;2023-02-28T07:28:54;99603.16;;;2.33;67.53
16806;BME280;8520;50.102;20.010;2023-02-28T07:31:23;99599.28;;;2.34;66.98
16806;BME280;8520;50.102;20.010;2023-02-28T07:33:52;99604.31;;;2.35;66.92
16806;BME280;8520;50.102;20.010;2023-02-28T07:36:20;99607.47;;;2.48;66.79
16806;BME280;8520;50.102;20.010;2023-02-28T07:38:49;99605.13;;;2.53;66.52
16806;BME280;8520;50.102;20.010;2023-02-28T07:41:18;99606.31;;;2.49;66.29
16806;BME280;8520;50.102;20.010;2023-02-28T07:43:47;99609.03;;;2.60;65.81
16806;BME280;8520;50.102;20.010;2023-02-28T07:46:16;99610.22;;;2.66;65.29
16806;BME280;8520;50.102;20.010;2023-02-28T07:48:48;99602.81;;;2.73;65.07
16806;BME280;8520;50.102;20.010;2023-02-28T07:51:16;99607.88;;;2.82;64.86
16806;BME280;8520;50.102;20.010;2023-02-28T07:53:44;99604.78;;;2.91;64.60
16806;BME280;8520;50.102;20.010;2023-02-28T07:56:13;99604.78;;;2.91;64.20
16806;BME280;8520;50.102;20.010;2023-02-28T07:58:41;99607.50;;;2.98;64.18
16806;BME280;8520;50.102;20.010;2023-02-28T08:01:10;99600.50;;;3.07;63.56
16806;BME280;8520;50.102;20.010;2023-02-28T08:03:39;99599.31;;;3.19;63.08
16806;BME280;8520;50.102;20.010;2023-02-28T08:06:16;99598.16;;;3.09;62.77
16806;BME280;8520;50.102;20.010;2023-02-28T08:08:44;99600.88;;;3.31;62.15
16806;BME280;8520;50.102;20.010;2023-02-28T08:11:12;99603.56;;;3.34;62.26
16806;BME280;8520;50.102;20.010;2023-02-28T08:13:40;99606.25;;;3.52;61.99
16806;BME280;8520;50.102;20.010;2023-02-28T08:16:11;99611.34;;;3.43;61.76
16806;BME280;8520;50.102;20.010;2023-02-28T08:18:42;99600.03;;;3.52;61.13
16806;BME280;8520;50.102;20.010;2023-02-28T08:21:11;99599.59;;;3.64;60.42
16806;BME280;8520;50.102;20.010;2023-02-28T08:23:39;99597.63;;;3.75;59.67
16806;BME280;8520;50.102;20.010;2023-02-28T08:26:08;99607.06;;;3.49;59.34
16806;BME280;8520;50.102;20.010;2023-02-28T08:28:36;99605.78;;;3.82;58.11
16806;BME280;8520;50.102;20.010;2023-02-28T08:31:07;99613.94;;;3.89;57.92
16806;BME280;8520;50.102;20.010;2023-02-28T08:33:36;99605.84;;;3.61;57.63
16806;BME280;8520;50.102;20.010;2023-02-28T08:36:06;99604.19;;;3.88;56.27
16806;BME280;8520;50.102;20.010;2023-02-28T08:38:37;99608.44;;;3.96;55.75
16806;BME280;8520;50.102;20.010;2023-02-28T08:41:07;99607.13;;;4.26;54.94
16806;BME280;8520;50.102;20.010;2023-02-28T08:43:36;99607.50;;;4.28;54.13
16806;BME280;8520;50.102;20.010;2023-02-28T08:46:05;99603.91;;;4.49;54.16
16806;BME280;8520;50.102;20.010;2023-02-28T08:48:35;99607.13;;;4.26;54.74
16806;BME280;8520;50.102;20.010;2023-02-28T08:51:09;99608.69;;;4.31;54.59
16806;BME280;8520;50.102;20.010;2023-02-28T08:53:40;99609.91;;;4.19;52.95
16806;BME280;8520;50.102;20.010;2023-02-28T08:56:09;99604.41;;;4.26;53.02
16806;BME280;8520;50.102;20.010;2023-02-28T08:58:39;99609.00;;;4.43;53.03
16806;BME280;8520;50.102;20.010;2023-02-28T09:01:09;99606.09;;;4.68;52.63
16806;BME280;8520;50.102;20.010;2023-02-28T09:03:39;99602.59;;;4.68;53.09
16806;BME280;8520;50.102;20.010;2023-02-28T09:06:09;99603.41;;;4.61;53.37
16806;BME280;8520;50.102;20.010;2023-02-28T09:08:39;99599.00;;;4.78;54.12
16806;BME280;8520;50.102;20.010;2023-02-28T09:11:08;99607.03;;;4.99;53.26
16806;BME280;8520;50.102;20.010;2023-02-28T09:13:36;99603.88;;;5.01;52.54
16806;BME280;8520;50.102;20.010;2023-02-28T09:16:10;99608.91;;;4.57;52.72
16806;BME280;8520;50.102;20.010;2023-02-28T09:18:39;99597.38;;;4.84;51.31
16806;BME280;8520;50.102;20.010;2023-02-28T09:21:09;99614.81;;;5.01;51.59
16806;BME280;8520;50.102;20.010;2023-02-28T09:23:42;99608.00;;;4.75;51.35
16806;BME280;8520;50.102;20.010;2023-02-28T09:26:13;99610.09;;;4.53;52.01
16806;BME280;8520;50.102;20.010;2023-02-28T09:28:42;99605.00;;;4.55;51.81
16806;BME280;8520;50.102;20.010;2023-02-28T09:31:12;99602.78;;;4.36;51.80
16806;BME280;8520;50.102;20.010;2023-02-28T09:33:41;99606.03;;;4.79;51.13
16806;BME280;8520;50.102;20.010;2023-02-28T09:36:09;99608.13;;;5.09;50.75
16806;BME280;8520;50.102;20.010;2023-02-28T09:38:37;99604.28;;;4.99;50.52
16806;BME280;8520;50.102;20.010;2023-02-28T09:41:13;99606.31;;;4.92;50.83
16806;BME280;8520;50.102;20.010;2023-02-28T09:43:44;99597.94;;;4.65;51.59
16806;BME280;8520;50.102;20.010;2023-02-28T09:46:29;99606.94;;;5.10;50.95
16806;BME280;8520;50.102;20.010;2023-02-28T09:49:01;99606.25;;;5.43;50.52
16806;BME280;8520;50.102;20.010;2023-02-28T09:51:37;99600.03;;;5.39;50.60
16806;BME280;8520;50.102;20.010;2023-02-28T09:54:13;99603.94;;;5.38;50.81
16806;BME280;8520;50.102;20.010;2023-02-28T09:56:49;99612.75;;;5.16;50.94
16806;BME280;8520;50.102;20.010;2023-02-28T09:59:31;99606.66;;;5.38;50.91
16806;BME280;8520;50.102;20.010;2023-02-28T10:02:11;99616.50;;;5.32;50.97
16806;BME280;8520;50.102;20.010;2023-02-28T10:04:45;99611.34;;;5.38;51.10
16806;BME280;8520;50.102;20.010;2023-02-28T10:07:35;99612.41;;;5.10;51.18
16806;BME280;8520;50.102;20.010;2023-02-28T10:10:18;99615.03;;;5.21;51.17
16806;BME280;8520;50.102;20.010;2023-02-28T10:12:51;99614.66;;;5.22;51.83
16806;BME280;8520;50.102;20.010;2023-02-28T10:15:23;99605.28;;;5.57;51.57
16806;BME280;8520;50.102;20.010;2023-02-28T10:17:56;99612.59;;;5.30;50.96
16806;BME280;8520;50.102;20.010;2023-02-28T10:20:36;99593.75;;;5.01;52.67
16806;BME280;8520;50.102;20.010;2023-02-28T10:23:10;99596.47;;;5.05;52.70
16806;BME280;8520;50.102;20.010;2023-02-28T10:25:43;99594.47;;;4.57;52.04
16806;BME280;8520;50.102;20.010;2023-02-28T10:28:16;99591.59;;;4.78;51.70
16806;BME280;8520;50.102;20.010;2023-02-28T10:30:47;99590.19;;;5.08;51.39
16806;BME280;8520;50.102;20.010;2023-02-28T10:33:19;99588.72;;;5.37;50.68
16806;BME280;8520;50.102;20.010;2023-02-28T10:35:49;99586.47;;;5.29;50.55
16806;BME280;8520;50.102;20.010;2023-02-28T10:38:19;99585.31;;;4.85;51.75
16806;BME280;8520;50.102;20.010;2023-02-28T10:40:47;99589.03;;;5.05;51.82
16806;BME280;8520;50.102;20.010;2023-02-28T10:43:22;99584.47;;;5.33;50.29
16806;BME280;8520;50.102;20.010;2023-02-28T10:46:01;99573.97;;;5.31;49.76
16806;BME280;8520;50.102;20.010;2023-02-28T10:48:33;99580.69;;;5.23;49.82
16806;BME280;8520;50.102;20.010;2023-02-28T10:51:02;99562.78;;;5.53;49.66
16806;BME280;8520;50.102;20.010;2023-02-28T10:53:35;99572.88;;;5.59;49.51
16806;BME280;8520;50.102;20.010;2023-02-28T10:56:25;99570.22;;;5.52;49.93
16806;BME280;8520;50.102;20.010;2023-02-28T10:58:57;99577.50;;;5.28;50.19
16806;BME280;8520;50.102;20.010;2023-02-28T11:01:35;99562.38;;;5.17;50.74
16806;BME280;8520;50.102;20.010;2023-02-28T11:04:18;99561.88;;;5.29;50.57
16806;BME280;8520;50.102;20.010;2023-02-28T11:06:56;99563.50;;;5.23;51.26
16806;BME280;8520;50.102;20.010;2023-02-28T11:09:29;99559.72;;;5.09;51.59
16806;BME280;8520;50.102;20.010;2023-02-28T11:11:58;99557.50;;;5.35;51.16
16806;BME280;8520;50.102;20.010;2023-02-28T11:14:30;99545.03;;;5.34;51.48
16806;BME280;8520;50.102;20.010;2023-02-28T11:17:13;99545.44;;;5.32;52.15
16806;BME280;8520;50.102;20.010;2023-02-28T11:19:45;99545.75;;;5.04;52.52
16806;BME280;8520;50.102;20.010;2023-02-28T11:22:18;99539.88;;;5.02;52.34
16806;BME280;8520;50.102;20.010;2023-02-28T11:24:51;99534.22;;;5.23;52.20
16806;BME280;8520;50.102;20.010;2023-02-28T11:27:43;99533.00;;;5.28;50.97
16806;BME280;8520;50.102;20.010;2023-02-28T11:30:32;99530.00;;;5.15;51.51
16806;BME280;8520;50.102;20.010;2023-02-28T11:33:20;99532.34;;;5.17;51.87
16806;BME280;8520;50.102;20.010;2023-02-28T11:35:50;99537.72;;;5.24;51.51
16806;BME280;8520;50.102;20.010;2023-02-28T11:38:19;99524.81;;;4.42;53.16
16806;BME280;8520;50.102;20.010;2023-02-28T11:40:53;99521.75;;;5.22;51.69
16806;BME280;8520;50.102;20.010;2023-02-28T11:43:38;99526.13;;;5.47;51.06
16806;BME280;8520;50.102;20.010;2023-02-28T11:46:18;99520.50;;;5.95;50.32
16806;BME280;8520;50.102;20.010;2023-02-28T11:48:57;99519.19;;;6.03;49.92
16806;BME280;8520;50.102;20.010;2023-02-28T11:51:28;99513.38;;;6.01;49.64
16806;BME280;8520;50.102;20.010;2023-02-28T11:54:23;99521.63;;;5.67;50.23
16806;BME280;8520;50.102;20.010;2023-02-28T11:56:55;99518.03;;;6.04;50.02
16806;BME280;8520;50.102;20.010;2023-02-28T11:59:41;99515.81;;;5.95;50.10
16806;BME280;8520;50.102;20.010;2023-02-28T12:02:25;99515.84;;;5.92;50.32
16806;BME280;8520;50.102;20.010;2023-02-28T12:05:13;99516.38;;;6.37;50.14
16806;BME280;8520;50.102;20.010;2023-02-28T12:07:50;99507.84;;;6.59;48.71
16806;BME280;8520;50.102;20.010;2023-02-28T12:10:25;99509.19;;;6.70;48.91
16806;BME280;8520;50.102;20.010;2023-02-28T12:13:06;99507.22;;;6.47;49.48
16806;BME280;8520;50.102;20.010;2023-02-28T12:16:11;99512.59;;;6.78;48.71
16806;BME280;8520;50.102;20.010;2023-02-28T12:18:56;99506.22;;;7.28;48.00
16806;BME280;8520;50.102;20.010;2023-02-28T12:21:41;99506.97;;;7.88;47.25
16806;BME280;8520;50.102;20.010;2023-02-28T12:24:32;99498.16;;;9.10;44.44
16806;BME280;8520;50.102;20.010;2023-02-28T12:27:07;99493.75;;;9.84;43.42
16806;BME280;8520;50.102;20.010;2023-02-28T12:29:44;99502.88;;;9.93;42.46
16806;BME280;8520;50.102;20.010;2023-02-28T12:32:18;99500.50;;;11.50;40.70
16806;BME280;8520;50.102;20.010;2023-02-28T12:34:52;99504.75;;;10.60;40.67
16806;BME280;8520;50.102;20.010;2023-02-28T12:37:26;99515.13;;;11.60;40.28
16806;BME280;8520;50.102;20.010;2023-02-28T12:40:00;99499.72;;;12.92;38.97
16806;BME280;8520;50.102;20.010;2023-02-28T12:42:36;99500.66;;;13.17;38.33
16806;BME280;8520;50.102;20.010;2023-02-28T12:45:10;99497.91;;;13.53;37.28
16806;BME280;8520;50.102;20.010;2023-02-28T12:47:42;99504.19;;;12.90;37.96
16806;BME280;8520;50.102;20.010;2023-02-28T12:50:14;99498.34;;;13.24;38.41
16806;BME280;8520;50.102;20.010;2023-02-28T12:52:50;99502.66;;;13.25;37.34
16806;BME280;8520;50.102;20.010;2023-02-28T12:55:25;99495.22;;;12.76;37.56
16806;BME280;8520;50.102;20.010;2023-02-28T12:58:05;99490.19;;;12.84;37.85
16806;BME280;8520;50.102;20.010;2023-02-28T13:00:40;99490.59;;;12.64;38.69
16806;BME280;8520;50.102;20.010;2023-02-28T13:03:44;99490.44;;;12.68;38.43
16806;BME280;8520;50.102;20.010;2023-02-28T13:06:33;99486.56;;;12.07;38.80
16806;BME280;8520;50.102;20.010;2023-02-28T13:09:10;99494.59;;;12.14;38.83
16806;BME280;8520;50.102;20.010;2023-02-28T13:11:41;99486.81;;;11.90;39.95
16806;BME280;8520;50.102;20.010;2023-02-28T13:14:22;99491.06;;;11.82;40.33
16806;BME280;8520;50.102;20.010;2023-02-28T13:16:57;99492.59;;;11.39;40.68
16806;BME280;8520;50.102;20.010;2023-02-28T13:19:27;99487.28;;;11.89;40.01
16806;BME280;8520;50.102;20.010;2023-02-28T13:21:59;99489.25;;;11.88;39.90
16806;BME280;8520;50.102;20.010;2023-02-28T13:24:47;99486.78;;;11.37;39.89
16806;BME280;8520;50.102;20.010;2023-02-28T13:27:32;99482.97;;;11.66;40.39
16806;BME280;8520;50.102;20.010;2023-02-28T13:30:01;99473.16;;;10.99;41.43
16806;BME280;8520;50.102;20.010;2023-02-28T13:32:37;99473.13;;;11.34;40.96
16806;BME280;8520;50.102;20.010;2023-02-28T13:35:14;99472.25;;;11.24;41.06
16806;BME280;8520;50.102;20.010;2023-02-28T13:37:45;99468.16;;;11.07;41.65
16806;BME280;8520;50.102;20.010;2023-02-28T13:40:31;99466.94;;;11.30;41.58
16806;BME280;8520;50.102;20.010;2023-02-28T13:43:07;99470.56;;;11.05;41.07
16806;BME280;8520;50.102;20.010;2023-02-28T13:45:36;99470.22;;;11.16;41.60
16806;BME280;8520;50.102;20.010;2023-02-28T13:48:16;99463.59;;;10.78;42.36